createdAt,value
2022-11-14T00:00:56.486Z,2.15
2022-11-14T00:03:41.753Z,1.90
2022-11-14T00:06:27.165Z,1.88
2022-11-14T00:09:12.494Z,1.95
2022-11-14T00:11:57.987Z,1.70
2022-11-14T00:14:43.368Z,1.60
2022-11-14T00:17:31.121Z,1.80
2022-11-14T00:20:16.434Z,2.00
2022-11-14T00:23:01.759Z,1.88
2022-11-14T00:25:47.852Z,1.98
2022-11-14T00:28:33.046Z,1.90
2022-11-14T00:31:18.669Z,2.22
2022-11-14T00:34:04.541Z,2.10
2022-11-14T00:36:51.999Z,2.00
2022-11-14T00:39:37.342Z,2.10
2022-11-14T00:42:22.424Z,2.20
2022-11-14T00:45:08.383Z,1.98
2022-11-14T00:47:53.838Z,2.35
2022-11-14T00:50:39.081Z,2.25
2022-11-14T00:53:24.528Z,2.28
2022-11-14T00:56:09.802Z,2.35
2022-11-14T00:58:54.990Z,2.10
2022-11-14T01:01:40.064Z,1.95
2022-11-14T01:04:25.653Z,1.98
2022-11-14T01:07:10.833Z,2.42
2022-11-14T01:09:56.336Z,2.30
2022-11-14T01:12:41.549Z,2.40
2022-11-14T01:15:26.463Z,2.42
2022-11-14T01:18:14.546Z,2.20
2022-11-14T01:21:00.143Z,2.60
2022-11-14T01:23:45.652Z,2.42
2022-11-14T01:26:30.805Z,2.67
2022-11-14T01:29:15.742Z,2.28
2022-11-14T01:32:01.690Z,2.60
2022-11-14T01:34:46.813Z,2.25
2022-11-14T01:37:32.267Z,2.25
2022-11-14T01:40:17.700Z,2.28
2022-11-14T01:43:12.197Z,2.40
2022-11-14T01:46:06.994Z,2.50
2022-11-14T01:49:06.668Z,2.78
2022-11-14T01:51:57.144Z,2.30
2022-11-14T01:54:46.006Z,2.65
2022-11-14T01:57:35.468Z,2.95
2022-11-14T02:00:20.887Z,2.90
2022-11-14T02:03:06.385Z,2.80
2022-11-14T02:05:53.468Z,2.55
2022-11-14T02:08:40.005Z,2.42
2022-11-14T02:11:28.472Z,2.80
2022-11-14T02:14:13.807Z,2.60
2022-11-14T02:17:27.498Z,2.83
2022-11-14T02:20:08.045Z,2.88
2022-11-14T02:22:53.127Z,2.90
2022-11-14T02:25:39.958Z,3.00
2022-11-14T02:28:26.335Z,3.10
2022-11-14T02:31:11.787Z,2.75
2022-11-14T02:33:57.005Z,2.70
2022-11-14T02:36:42.398Z,3.00
2022-11-14T02:39:27.891Z,2.75
2022-11-14T02:42:13.457Z,3.03
2022-11-14T02:44:58.895Z,2.70
2022-11-14T02:47:44.581Z,3.17
2022-11-14T02:50:29.883Z,2.85
2022-11-14T02:53:15.430Z,2.90
2022-11-14T02:56:01.382Z,3.10
2022-11-14T02:58:47.012Z,2.80
2022-11-14T03:01:32.142Z,3.00
2022-11-14T03:04:17.285Z,2.90
2022-11-14T03:07:02.723Z,2.83
2022-11-14T03:09:48.151Z,2.97
2022-11-14T03:12:33.183Z,2.90
2022-11-14T03:15:18.691Z,2.67
2022-11-14T03:18:03.972Z,3.00
2022-11-14T03:20:49.544Z,2.72
2022-11-14T03:23:36.068Z,2.83
2022-11-14T03:26:21.362Z,2.75
2022-11-14T03:29:06.724Z,2.80
2022-11-14T03:31:52.302Z,2.67
2022-11-14T03:34:37.196Z,3.00
2022-11-14T03:37:22.618Z,2.75
2022-11-14T03:40:08.785Z,2.72
2022-11-14T03:42:54.330Z,2.65
2022-11-14T03:45:39.784Z,3.28
2022-11-14T03:48:24.872Z,2.53
2022-11-14T03:51:09.913Z,2.40
2022-11-14T03:53:55.280Z,2.83
2022-11-14T03:56:40.566Z,2.95
2022-11-14T03:59:25.570Z,2.70
2022-11-14T04:02:10.984Z,2.95
2022-11-14T04:04:56.421Z,2.80
2022-11-14T04:07:41.391Z,2.88
2022-11-14T04:10:26.305Z,3.03
2022-11-14T04:13:11.405Z,2.80
2022-11-14T04:16:00.459Z,3.17
2022-11-14T04:18:45.525Z,2.70
2022-11-14T04:21:30.822Z,2.67
2022-11-14T04:24:15.752Z,2.70
2022-11-14T04:27:01.020Z,3.17
2022-11-14T04:29:48.121Z,2.72
2022-11-14T04:32:33.497Z,2.78
2022-11-14T04:35:18.839Z,2.88
2022-11-14T04:38:04.346Z,2.97
2022-11-14T04:40:53.239Z,3.03
2022-11-14T04:43:38.329Z,2.70
2022-11-14T04:46:23.625Z,2.83
2022-11-14T04:49:09.477Z,3.28
2022-11-14T04:51:55.216Z,3.15
2022-11-14T04:54:40.353Z,2.95
2022-11-14T04:57:26.143Z,2.58
2022-11-14T05:00:12.333Z,2.88
2022-11-14T05:02:59.878Z,2.90
2022-11-14T05:05:45.300Z,2.80
2022-11-14T05:08:30.950Z,3.05
2022-11-14T05:11:18.655Z,2.90
2022-11-14T05:14:04.097Z,3.20
2022-11-14T05:16:49.329Z,2.67
2022-11-14T05:19:34.524Z,2.95
2022-11-14T05:22:19.890Z,2.90
2022-11-14T05:25:06.468Z,3.00
2022-11-14T05:27:51.861Z,3.08
2022-11-14T05:30:37.025Z,2.70
2022-11-14T05:33:22.111Z,2.55
2022-11-14T05:36:10.470Z,3.30
2022-11-14T05:38:55.895Z,3.47
2022-11-14T05:41:41.452Z,3.30
2022-11-14T05:44:26.875Z,3.08
2022-11-14T05:47:12.303Z,3.00
2022-11-14T05:49:57.710Z,2.65
2022-11-14T05:52:42.899Z,3.45
2022-11-14T05:55:28.218Z,3.03
2022-11-14T05:58:13.542Z,3.17
2022-11-14T06:01:03.911Z,3.10
2022-11-14T06:03:49.315Z,3.58
2022-11-14T06:06:34.686Z,3.50
2022-11-14T06:09:20.389Z,3.72
2022-11-14T06:12:07.861Z,3.40
2022-11-14T06:14:53.271Z,3.38
2022-11-14T06:17:39.160Z,3.30
2022-11-14T06:20:24.457Z,3.35
2022-11-14T06:23:09.747Z,3.60
2022-11-14T06:26:10.958Z,4.00
2022-11-14T06:28:57.236Z,3.38
2022-11-14T06:31:42.914Z,3.00
2022-11-14T06:34:28.221Z,3.53
2022-11-14T06:37:13.248Z,3.55
2022-11-14T06:39:58.784Z,3.10
2022-11-14T06:42:43.945Z,3.30
2022-11-14T06:45:29.094Z,2.92
2022-11-14T06:48:14.027Z,3.20
2022-11-14T06:51:00.363Z,3.30
2022-11-14T06:53:46.605Z,2.75
2022-11-14T06:56:32.249Z,2.83
2022-11-14T06:59:17.563Z,3.40
2022-11-14T07:02:02.799Z,3.20
2022-11-14T07:04:48.358Z,2.97
2022-11-14T07:07:33.604Z,2.67
2022-11-14T07:10:19.029Z,3.30
2022-11-14T07:13:04.326Z,2.65
2022-11-14T07:15:51.508Z,2.60
2022-11-14T07:18:36.762Z,2.65
2022-11-14T07:21:22.653Z,2.72
2022-11-14T07:24:08.192Z,2.88
2022-11-14T07:26:53.517Z,2.83
2022-11-14T07:29:38.914Z,3.30
2022-11-14T07:32:24.036Z,3.13
2022-11-14T07:35:09.290Z,3.10
2022-11-14T07:38:01.574Z,2.85
2022-11-14T07:40:59.976Z,2.83
2022-11-14T07:43:46.080Z,2.70
2022-11-14T07:46:31.604Z,3.15
2022-11-14T07:49:17.061Z,2.55
2022-11-14T07:52:02.070Z,2.65
2022-11-14T07:54:47.686Z,2.40
2022-11-14T07:57:38.918Z,2.95
2022-11-14T08:00:25.860Z,2.92
2022-11-14T08:03:11.599Z,2.85
2022-11-14T08:06:08.697Z,2.65
2022-11-14T08:08:54.269Z,2.83
2022-11-14T08:11:48.367Z,3.15
2022-11-14T08:14:34.259Z,2.70
2022-11-14T08:17:23.630Z,2.60
2022-11-14T08:23:02.176Z,3.03
2022-11-14T08:25:47.282Z,2.78
2022-11-14T08:28:32.890Z,2.60
2022-11-14T08:31:18.587Z,3.13
2022-11-14T08:34:03.922Z,2.75
2022-11-14T08:36:49.857Z,2.78
2022-11-14T08:39:35.208Z,2.80
2022-11-14T08:42:20.343Z,2.67
2022-11-14T08:45:05.816Z,2.53
2022-11-14T08:47:52.748Z,2.67
2022-11-14T08:50:38.372Z,2.83
2022-11-14T08:53:23.989Z,2.90
2022-11-14T08:56:10.766Z,2.70
2022-11-14T08:58:56.067Z,2.55
2022-11-14T09:01:41.371Z,3.00
2022-11-14T09:04:26.669Z,2.65
2022-11-14T09:07:12.280Z,3.03
2022-11-14T09:09:57.656Z,2.80
2022-11-14T09:12:43.103Z,2.45
2022-11-14T09:15:28.959Z,2.70
2022-11-14T09:18:15.406Z,3.10
2022-11-14T09:21:05.460Z,2.70
2022-11-14T09:23:51.106Z,2.85
2022-11-14T09:26:36.464Z,2.88
2022-11-14T09:29:22.239Z,2.72
2022-11-14T09:32:07.769Z,2.85
2022-11-14T09:34:52.934Z,2.80
2022-11-14T09:37:39.172Z,2.90
2022-11-14T09:40:24.580Z,3.15
2022-11-14T09:43:24.460Z,2.90
2022-11-14T09:46:47.778Z,2.90
2022-11-14T09:49:40.803Z,2.72
2022-11-14T09:52:40.050Z,3.47
2022-11-14T09:55:37.182Z,2.80
2022-11-14T09:58:22.942Z,3.08
2022-11-14T10:01:43.356Z,2.70
2022-11-14T10:04:48.451Z,2.83
2022-11-14T10:07:59.832Z,2.92
2022-11-14T10:10:47.577Z,2.85
2022-11-14T10:13:57.090Z,2.80
2022-11-14T10:16:51.486Z,3.10
2022-11-14T10:19:58.459Z,2.70
2022-11-14T10:23:05.682Z,2.97
2022-11-14T10:25:54.058Z,3.00
2022-11-14T10:28:48.903Z,3.00
2022-11-14T10:32:11.279Z,2.90
2022-11-14T10:35:04.070Z,2.97
2022-11-14T10:38:09.333Z,2.90
2022-11-14T10:40:59.343Z,2.90
2022-11-14T10:43:47.949Z,3.00
2022-11-14T10:46:40.453Z,3.33
2022-11-14T10:49:26.183Z,2.95
2022-11-14T10:52:16.728Z,3.47
2022-11-14T10:55:08.372Z,3.15
2022-11-14T10:57:53.541Z,3.17
2022-11-14T11:00:39.371Z,2.80
2022-11-14T11:03:42.658Z,3.30
2022-11-14T11:06:29.359Z,3.42
2022-11-14T11:09:45.841Z,3.20
2022-11-14T11:12:37.695Z,3.20
2022-11-14T11:15:30.405Z,2.95
2022-11-14T11:18:35.878Z,3.50
2022-11-14T11:21:23.531Z,3.53
2022-11-14T11:24:09.440Z,3.80
2022-11-14T11:27:20.348Z,3.05
2022-11-14T11:30:21.028Z,3.10
2022-11-14T11:33:16.076Z,3.50
2022-11-14T11:36:15.215Z,3.30
2022-11-14T11:39:00.486Z,3.08
2022-11-14T11:44:58.825Z,2.92
2022-11-14T11:47:59.585Z,3.00
2022-11-14T11:50:45.025Z,2.90
2022-11-14T11:53:53.466Z,3.25
2022-11-14T11:56:40.250Z,3.08
2022-11-14T11:59:37.836Z,2.80
2022-11-14T12:02:26.711Z,3.22
2022-11-14T12:05:53.680Z,2.95
2022-11-14T12:09:09.736Z,2.83
2022-11-14T12:12:01.542Z,2.63
2022-11-14T12:14:59.206Z,3.25
2022-11-14T12:18:18.482Z,3.40
2022-11-14T12:21:32.334Z,2.85
2022-11-14T12:24:48.500Z,2.80
2022-11-14T12:27:49.753Z,2.72
2022-11-14T12:30:37.307Z,3.03
2022-11-14T12:33:35.501Z,3.05
2022-11-14T12:36:40.530Z,2.60
2022-11-14T12:39:30.293Z,3.42
2022-11-14T12:42:21.450Z,2.75
2022-11-14T12:45:40.339Z,2.42
2022-11-14T12:48:25.494Z,2.50
2022-11-14T12:51:25.772Z,2.58
2022-11-14T12:54:44.295Z,2.67
2022-11-14T12:58:08.252Z,2.53
2022-11-14T13:00:53.743Z,2.65
2022-11-14T13:03:57.341Z,2.58
2022-11-14T13:07:08.524Z,2.58
2022-11-14T13:09:54.734Z,2.75
2022-11-14T13:13:25.620Z,2.85
2022-11-14T13:16:44.215Z,2.50
2022-11-14T13:19:48.245Z,2.38
2022-11-14T13:22:41.603Z,2.70
2022-11-14T13:25:27.218Z,2.35
2022-11-14T13:34:59.303Z,2.17
2022-11-14T13:38:22.040Z,2.22
2022-11-14T13:41:47.138Z,2.40
2022-11-14T13:45:02.919Z,2.60
2022-11-14T13:48:14.646Z,2.35
2022-11-14T13:51:28.579Z,2.40
2022-11-14T13:54:17.637Z,2.35
2022-11-14T13:57:26.057Z,2.00
2022-11-14T14:00:18.393Z,2.17
2022-11-14T14:03:22.862Z,2.40
2022-11-14T14:06:36.508Z,2.17
2022-11-14T14:09:36.021Z,2.20
2022-11-14T14:12:43.708Z,2.10
2022-11-14T14:15:41.357Z,2.33
2022-11-14T14:18:40.564Z,2.10
2022-11-14T14:21:48.010Z,2.17
2022-11-14T14:24:49.953Z,1.98
2022-11-14T14:27:50.439Z,1.80
2022-11-14T14:30:35.933Z,2.10
2022-11-14T14:33:22.242Z,2.28
2022-11-14T14:36:17.038Z,1.65
2022-11-14T14:39:22.731Z,2.35
2022-11-14T14:42:12.418Z,1.90
2022-11-14T14:44:58.229Z,1.92
2022-11-14T14:47:47.051Z,1.80
2022-11-14T14:50:41.860Z,2.20
2022-11-14T14:53:32.979Z,2.10
2022-11-14T14:56:25.094Z,1.85
2022-11-14T14:59:23.459Z,1.70
2022-11-14T15:02:16.465Z,1.88
2022-11-14T15:05:03.666Z,1.90
2022-11-14T15:07:50.533Z,1.65
2022-11-14T15:10:36.157Z,1.60
2022-11-14T15:13:23.547Z,2.17
2022-11-14T15:16:09.806Z,2.00
2022-11-14T15:18:57.374Z,2.10
2022-11-14T15:21:46.364Z,1.90
2022-11-14T15:24:32.391Z,1.92
2022-11-14T15:27:19.979Z,1.70
2022-11-14T15:30:08.027Z,1.90
2022-11-14T15:32:58.588Z,1.60
2022-11-14T15:35:43.646Z,1.95
2022-11-14T15:38:43.631Z,1.73
2022-11-14T15:41:31.064Z,2.10
2022-11-14T15:44:34.003Z,2.03
2022-11-14T15:47:34.486Z,2.33
2022-11-14T15:50:19.757Z,2.15
2022-11-14T15:53:26.713Z,2.15
2022-11-14T15:56:13.618Z,2.40
2022-11-14T15:58:58.980Z,2.22
2022-11-14T16:01:47.213Z,2.45
2022-11-14T16:04:35.846Z,2.27
2022-11-14T16:07:21.645Z,1.92
2022-11-14T16:10:19.437Z,2.05
2022-11-14T16:13:05.160Z,2.00
2022-11-14T16:15:50.776Z,1.83
2022-11-14T16:18:35.981Z,1.95
2022-11-14T16:21:21.200Z,2.35
2022-11-14T16:24:11.703Z,2.08
2022-11-14T16:26:58.197Z,2.05
2022-11-14T16:29:43.127Z,1.55
2022-11-14T16:32:28.569Z,2.15
2022-11-14T16:35:25.364Z,2.05
2022-11-14T16:38:13.666Z,1.80
2022-11-14T16:41:00.428Z,1.63
2022-11-14T16:43:46.034Z,1.58
2022-11-14T16:46:31.469Z,2.00
2022-11-14T16:49:17.786Z,1.95
2022-11-14T16:52:07.152Z,1.67
2022-11-14T16:54:52.888Z,1.80
2022-11-14T16:57:38.696Z,1.90
2022-11-14T17:00:24.704Z,2.10
2022-11-14T17:03:09.748Z,2.00
2022-11-14T17:05:55.089Z,1.83
2022-11-14T17:08:40.645Z,1.92
2022-11-14T17:11:26.873Z,1.80
2022-11-14T17:14:12.579Z,1.73
2022-11-14T17:17:16.394Z,1.75
2022-11-14T17:20:01.722Z,2.00
2022-11-14T17:22:46.629Z,1.98
2022-11-14T17:25:31.907Z,1.88
2022-11-14T17:31:20.841Z,1.70
2022-11-14T17:34:08.992Z,1.70
2022-11-14T17:36:54.166Z,1.92
2022-11-14T17:39:39.356Z,1.67
2022-11-14T17:42:24.883Z,2.10
2022-11-14T17:45:10.033Z,1.88
2022-11-14T17:47:55.165Z,1.65
2022-11-14T17:50:40.927Z,1.73
2022-11-14T17:53:26.334Z,1.70
2022-11-14T17:56:16.293Z,1.70
2022-11-14T17:59:01.597Z,1.60
2022-11-14T18:01:46.919Z,2.05
2022-11-14T18:04:32.535Z,1.83
2022-11-14T18:07:17.629Z,1.83
2022-11-14T18:10:03.501Z,1.50
2022-11-14T18:12:48.697Z,2.03
2022-11-14T18:15:34.728Z,1.70
2022-11-14T18:18:20.412Z,1.60
2022-11-14T18:21:14.359Z,1.70
2022-11-14T18:24:00.490Z,1.90
2022-11-14T18:26:45.931Z,1.40
2022-11-14T18:29:43.189Z,1.80
2022-11-14T18:32:28.603Z,1.60
2022-11-14T18:35:14.063Z,1.40
2022-11-14T18:37:59.333Z,1.70
2022-11-14T18:40:44.567Z,1.70
2022-11-14T18:43:32.727Z,1.70
2022-11-14T18:46:23.192Z,1.53
2022-11-14T18:49:08.980Z,1.52
2022-11-14T18:51:55.820Z,1.67
2022-11-14T18:54:41.691Z,1.58
2022-11-14T18:57:27.220Z,1.50
2022-11-14T19:00:13.231Z,1.73
2022-11-14T19:03:03.447Z,1.50
2022-11-14T19:05:51.093Z,1.70
2022-11-14T19:08:36.600Z,1.58
2022-11-14T19:11:40.210Z,1.88
2022-11-14T19:14:25.269Z,1.60
2022-11-14T19:17:10.584Z,1.75
2022-11-14T19:19:55.670Z,1.58
2022-11-14T19:22:40.629Z,1.60
2022-11-14T19:25:25.784Z,1.60
2022-11-14T19:28:11.361Z,1.80
2022-11-14T19:31:05.541Z,1.63
2022-11-14T19:33:51.039Z,1.70
2022-11-14T19:39:42.598Z,1.50
2022-11-14T19:42:28.432Z,1.60
2022-11-14T19:45:14.013Z,1.70
2022-11-14T19:47:59.743Z,1.67
2022-11-14T19:50:44.691Z,1.50
2022-11-14T19:53:31.061Z,1.52
2022-11-14T19:56:18.501Z,1.60
2022-11-14T19:59:09.602Z,1.60
2022-11-14T20:01:58.306Z,1.58
2022-11-14T20:04:46.916Z,1.40
2022-11-14T20:07:33.181Z,1.50
2022-11-14T20:10:18.456Z,1.55
2022-11-14T20:13:03.949Z,1.65
2022-11-14T20:15:49.459Z,1.67
2022-11-14T20:18:34.931Z,1.40
2022-11-14T20:21:22.868Z,1.67
2022-11-14T20:24:11.704Z,1.70
2022-11-14T20:26:57.032Z,1.70
2022-11-14T20:29:43.084Z,1.80
2022-11-14T20:32:28.609Z,1.75
2022-11-14T20:35:14.107Z,1.60
2022-11-14T20:38:04.148Z,1.55
2022-11-14T20:40:57.086Z,1.80
2022-11-14T20:43:43.002Z,1.60
2022-11-14T20:46:28.449Z,1.83
2022-11-14T20:49:13.754Z,1.88
2022-11-14T20:51:59.224Z,1.77
2022-11-14T20:54:44.610Z,1.52
2022-11-14T20:57:30.330Z,1.50
2022-11-14T21:00:16.163Z,1.60
2022-11-14T21:03:01.242Z,1.50
2022-11-14T21:05:47.003Z,2.10
2022-11-14T21:08:35.101Z,1.63
2022-11-14T21:11:22.398Z,2.10
2022-11-14T21:14:09.179Z,1.75
2022-11-14T21:16:54.468Z,1.80
2022-11-14T21:19:40.274Z,1.98
2022-11-14T21:22:25.706Z,1.95
2022-11-14T21:25:11.161Z,1.80
2022-11-14T21:27:56.722Z,1.95
2022-11-14T21:30:42.256Z,1.90
2022-11-14T21:33:30.474Z,1.75
2022-11-14T21:39:23.190Z,1.60
2022-11-14T21:42:08.161Z,1.80
2022-11-14T21:44:53.187Z,2.00
2022-11-14T21:47:38.086Z,2.00
2022-11-14T21:50:23.246Z,1.83
2022-11-14T21:53:16.007Z,2.00
2022-11-14T21:56:13.499Z,1.58
2022-11-14T21:59:16.079Z,1.98
2022-11-14T22:02:20.776Z,1.95
2022-11-14T22:05:06.581Z,2.38
2022-11-14T22:07:51.923Z,1.98
2022-11-14T22:10:37.146Z,1.80
2022-11-14T22:13:22.281Z,1.95
2022-11-14T22:16:09.411Z,1.98
2022-11-14T22:18:59.153Z,1.98
2022-11-14T22:21:47.414Z,2.10
2022-11-14T22:24:33.035Z,1.88
2022-11-14T22:27:18.737Z,2.10
2022-11-14T22:30:04.121Z,2.22
2022-11-14T22:32:49.487Z,2.20
2022-11-14T22:35:35.402Z,2.58
2022-11-14T22:38:20.445Z,2.08
2022-11-14T22:41:09.426Z,1.92
2022-11-14T22:43:56.199Z,2.10
2022-11-14T22:46:41.723Z,2.00
2022-11-14T22:49:27.079Z,2.20
2022-11-14T22:52:12.163Z,1.98
2022-11-14T22:54:57.159Z,2.00
2022-11-14T22:57:42.786Z,2.03
2022-11-14T23:00:27.913Z,2.00
2022-11-14T23:03:20.377Z,1.80
2022-11-14T23:06:17.410Z,2.15
2022-11-14T23:09:21.462Z,1.92
2022-11-14T23:12:07.034Z,2.00
2022-11-14T23:14:54.239Z,1.92
2022-11-14T23:17:39.733Z,1.90
2022-11-14T23:20:24.948Z,2.20
2022-11-14T23:23:29.192Z,2.40
2022-11-14T23:26:17.316Z,2.05
2022-11-14T23:29:03.290Z,1.80
2022-11-14T23:31:48.441Z,2.17
2022-11-14T23:34:33.583Z,2.10
2022-11-14T23:37:19.372Z,2.10
2022-11-14T23:40:04.900Z,2.05
2022-11-14T23:42:50.097Z,2.00
2022-11-14T23:45:35.257Z,2.28
2022-11-14T23:48:22.062Z,2.30
2022-11-14T23:51:07.424Z,1.80
2022-11-14T23:53:52.557Z,2.05
2022-11-14T23:56:37.789Z,1.80
2022-11-14T23:59:22.738Z,2.00
